x

West Tampa - 112 Nm Wnw Of Tampa, Fl (42036) Wave Buoy

8:50am - Fri 12th Feb 2016 All times are EST. -5 hours from GMT.

  • Sig Wave height 4.3ft
  • Swell Direction
  • Peak Period 6s
  • Average Period 5s
  • Wind
    16mph, 20mph gusts
  • Sea Temp 66°f
  • Air Temp 68°f
  • Sea Pressure 1024.8mb
  • West Tampa  - 112 Nm Wnw Of Tampa, Fl
  • West Tampa  - 112 Nm Wnw Of Tampa, Fl

More Historic Weather Station data

Upgrade to MSW Pro to gain access to the past 30 days of data for over 8000 Wavebouys and Weather Stations around the globe.

Join Pro

Comparision Forecast

View Surf forecast
   
Fri 02/12 8:50am 4.5ft 6s 5s 16 20 mph 1024.8mb 66f 68f
7:50am 4ft 6s 4s 16 20 mph 1024.4mb 66f 68f
6:50am 4ft 6s 4s 18 22 mph 1024.1mb 66f 67f
5:50am 4ft 5s 4s 16 20 mph 1023.6mb 66f 67f
4:50am 4ft 5s 4s 18 22 mph 1023.4mb 67f 67f
3:50am 3.5ft 6s 4s 18 22 mph 1023.3mb 67f 67f
2:50am 3.5ft 6s 4s 18 20 mph 1023.6mb 67f 67f
1:50am 3.5ft 6s 4s 18 20 mph 1024.1mb 67f 67f
12:50am 3.5ft 6s 4s 16 20 mph 1024.4mb 67f 67f
Thu 02/11 11:50pm 3.5ft 6s 4s 16 18 mph 1025mb 67f 67f
10:50pm 3.5ft 5s 4s 16 18 mph 1025.1mb 67f 67f
9:50pm 3.5ft 6s 4s 16 18 mph 1024.9mb 67f 67f
8:50pm 3ft 6s 4s 16 18 mph 1024.8mb 67f 67f
7:50pm 3ft 7s 4s 16 20 mph 1024.4mb 67f 67f
6:50pm 3ft 6s 4s 13 18 mph 1024.4mb 67f 66f
5:50pm 2.5ft 7s 4s 11 16 mph 1024.2mb 67f 66f
4:50pm 2.5ft 7s 4s 13 18 mph 1023.9mb 67f 66f
3:50pm 2.5ft 7s 5s 11 16 mph 1023.7mb 67f 65f
2:50pm 2.5ft 7s 5s 11 13 mph 1024mb 67f 65f
1:50pm 2.5ft 7s 5s 9 13 mph 1024.5mb 67f 64f
12:50pm 3ft 7s 5s 7 9 mph 1025.4mb 67f 64f
11:50am 2.5ft 7s 5s 4 7 mph 1026.2mb 67f 64f
10:50am 3ft 7s 5s 7 9 mph 1026.5mb 66f 64f
8:50am 3.5ft 8s 5s 7 9 mph 1026.5mb 66f 63f
7:50am 3.5ft 8s 5s 9 13 mph 1026.1mb 66f 62f
6:50am 4ft 7s 5s 9 11 mph 1025.7mb 66f 61f
5:50am 4ft 7s 5s 9 13 mph 1024.9mb 66f 61f
4:50am 4ft 7s 5s 9 13 mph 1024.5mb 66f 60f
3:50am 4.5ft 7s 5s 11 13 mph 1024.1mb 66f 60f
2:50am 4.5ft 8s 5s 11 13 mph 1023.9mb 66f 59f
1:50am 5ft 8s 5s 11 18 mph 1024.2mb 66f 58f
12:50am 5ft 7s 6s 11 16 mph 1024.4mb 66f 58f
Wed 02/10 11:50pm 5.5ft 7s 5s 11 13 mph 1025mb 66f 57f
10:50pm 5.5ft 7s 5s 11 16 mph 1025.3mb 66f 56f
9:50pm 6.5ft 8s 6s 16 20 mph 1025.2mb 66f 56f
8:50pm 7ft 8s 6s 18 22 mph 1025.1mb 67f 56f
7:50pm 6.5ft 8s 6s 20 22 mph 1024.7mb 67f 55f
6:50pm 6.5ft 8s 5s 20 25 mph 1024.4mb 67f 55f
5:50pm 7ft 8s 6s 20 27 mph 1024.2mb 67f 55f
4:50pm 8ft 9s 6s 20 27 mph 1024mb 67f 54f
3:50pm 8ft 9s 6s 22 27 mph 1023.6mb 67f 54f
2:50pm 8ft 9s 6s 22 27 mph 1023.8mb 67f 52f
1:50pm 9ft 9s 6s 20 27 mph 1024mb 67f 51f
12:50pm 8.5ft 9s 6s 20 27 mph 1024.7mb 67f 51f
11:50am 8ft 9s 6s 20 27 mph 1025.5mb 67f 52f
10:50am 8.5ft 9s 6s 22 27 mph 1025.7mb 67f 52f
9:50am 9ft 9s 6s 22 29 mph 1024.8mb 67f 53f
8:50am 8.5ft 8s 6s 20 27 mph 1023.4mb 67f 55f
7:50am 9ft 8s 6s 25 31 mph 1022mb 67f 56f
6:50am 9ft 10s 6s 20 29 mph 1021.4mb 67f 58f
5:50am 9ft 8s 6s 25 31 mph 1020.7mb 67f 58f
4:50am 9.5ft 9s 7s 18 25 mph 1020.4mb 67f 57f
3:50am 9ft 9s 6s 18 22 mph 1020.2mb 67f 56f
2:50am 10ft 9s 6s 22 29 mph 1019.9mb 67f 57f
1:50am 11ft 9s 7s 27 34 mph 1019.6mb 67f 58f
12:50am 10.5ft 8s 6s 27 34 mph 1019.2mb 67f 59f
Tue 02/09 11:50pm 11ft 9s 6s 27 34 mph 1019.4mb 67f 58f
10:50pm 10.5ft 9s 7s 27 34 mph 1019mb 67f 58f
9:50pm 11ft 8s 6s 29 36 mph 1018.4mb 67f 58f
8:50pm 11.5ft 10s 7s 29 36 mph 1017.7mb 67f 58f
7:50pm 12ft 9s 7s 29 38 mph 1017mb 67f 58f
6:50pm 11.5ft 8s 7s 29 38 mph 1016mb 67f 58f
5:50pm 12.5ft 8s 7s 29 40 mph 1015.6mb 67f 58f
4:50pm 12ft 9s 7s 29 38 mph 1015.2mb 67f 58f
3:50pm 11.5ft 9s 7s 29 38 mph 1014.8mb 67f 58f
2:50pm 11ft 9s 7s 29 38 mph 1015mb 67f 58f
1:50pm 11ft 9s 6s 31 38 mph 1015.1mb 67f 59f
12:50pm 12ft 9s 7s 29 36 mph 1016.2mb 67f 59f
11:50am 11.5ft 9s 7s 29 36 mph 1017.3mb 67f 59f
10:50am 12.5ft 10s 7s 29 36 mph 1017.6mb 67f 58f
9:50am 11ft 10s 7s 25 31 mph 1017.7mb 67f 58f
8:50am 11.5ft 10s 7s 27 34 mph 1017.2mb 67f 57f
7:50am 12.5ft 10s 7s 25 31 mph 1017mb 67f 57f
6:50am 14ft 10s 7s 27 34 mph 1016.5mb 67f 57f
5:50am 14ft 10s 7s 29 36 mph 1016.1mb 67f 57f
4:50am 14ft 10s 7s 27 38 mph 1015.8mb 67f 56f
3:50am 14ft 10s 7s 31 45 mph 1015.5mb 67f 56f
2:50am 14.5ft 9s 7s 34 45 mph 1015.2mb 67f 57f
1:50am 15ft 10s 7s 34 43 mph 1014.9mb 67f 58f
12:50am 15ft 10s 8s 31 38 mph 1014.3mb 68f 60f
Mon 02/08 11:50pm 14ft 8s 7s 31 40 mph 1013.9mb 68f 61f
10:50pm 15.5ft 9s 7s 36 43 mph 1013.2mb 68f 61f
9:50pm 15ft 9s 7s 36 45 mph 1012.3mb 68f 62f
8:50pm 13.5ft 9s 7s 34 43 mph 1012mb 68f 63f
7:50pm 11.5ft 8s 6s 36 45 mph 1010.9mb 68f 66f
6:50pm 11ft 8s 6s 34 40 mph 1011.2mb 68f 66f
5:50pm 9ft 7s 6s 34 43 mph 1011.3mb 68f 66f
4:50pm 8ft 7s 6s 31 40 mph 1011.7mb 68f 65f
3:50pm 8ft 7s 6s 29 34 mph 1012.6mb 68f 65f